Time;durP1;ratioP1;P1;durP2;ratioP2;P2;SDS_P1;SDS_P2;PMS_P1;PMS_P2;Temp;Humidity;BMP_temperature;BMP_pressure;BME280_temperature;BME280_humidity;BME280_pressure;Samples;Min_cycle;Max_cycle;Signal;HPM_P1;HPM_P2
2022/05/07 00:01:56;;;;;;;;;;;;;;;19.65;90.60;99604.41;5065506;28;19916;-48
2022/05/07 00:04:21;;;;;;;;;;;;;;;19.71;90.59;99596.25;5062800;28;19955;-45
2022/05/07 00:06:46;;;;;;;;;;;;;;;19.70;90.46;99607.59;5066913;28;19989;-44
2022/05/07 00:09:12;;;;;;;;;;;;;;;19.42;93.13;99611.00;5065781;28;19920;-46
2022/05/07 00:11:37;;;;;;;;;;;;;;;19.36;92.97;99611.34;5064409;28;19921;-46
2022/05/07 00:14:02;;;;;;;;;;;;;;;19.50;92.51;99602.69;5065907;28;19930;-44
2022/05/07 00:19:11;;;;;;;;;;;;;;;19.47;92.72;99601.09;5066187;28;20441;-44
2022/05/07 00:21:36;;;;;;;;;;;;;;;19.22;94.26;99606.94;5061386;28;19920;-44
2022/05/07 00:24:03;;;;;;;;;;;;;;;19.31;94.07;99606.38;5065787;28;19924;-44
2022/05/07 00:26:28;;;;;;;;;;;;;;;19.51;92.30;99600.00;5064543;28;19924;-45
2022/05/07 00:28:54;;;;;;;;;;;;;;;19.41;93.82;99596.25;5064951;28;19917;-44
2022/05/07 00:31:19;;;;;;;;;;;;;;;19.25;93.63;99598.06;5067242;28;19924;-44
2022/05/07 00:33:45;;;;;;;;;;;;;;;19.38;92.63;99589.44;5064533;28;19989;-44
2022/05/07 00:36:10;;;;;;;;;;;;;;;19.40;92.31;99586.72;5065072;28;19959;-44
2022/05/07 00:38:35;;;;;;;;;;;;;;;19.42;92.10;99592.72;5063463;28;19958;-46
2022/05/07 00:41:00;;;;;;;;;;;;;;;19.33;93.02;99588.88;5064590;28;19943;-44
2022/05/07 00:43:33;;;;;;;;;;;;;;;19.07;94.75;99590.41;5065598;28;19920;-44
2022/05/07 00:45:58;;;;;;;;;;;;;;;18.97;96.03;99594.44;5048076;28;19926;-43
2022/05/07 00:48:25;;;;;;;;;;;;;;;19.11;94.57;99591.03;5062977;28;19920;-43
2022/05/07 00:53:52;;;;;;;;;;;;;;;19.05;95.99;99592.25;5031256;28;19929;-43
2022/05/07 00:56:17;;;;;;;;;;;;;;;19.08;95.70;99594.69;5053185;28;20937;-44
2022/05/07 00:58:42;;;;;;;;;;;;;;;19.16;94.86;99589.84;5045059;28;20381;-43
2022/05/07 01:01:07;;;;;;;;;;;;;;;19.02;95.02;99589.78;5063442;28;19943;-43
2022/05/07 01:03:32;;;;;;;;;;;;;;;18.99;95.06;99589.97;5066060;28;20023;-44
2022/05/07 01:05:59;;;;;;;;;;;;;;;19.04;95.33;99587.94;5061946;28;19921;-44
2022/05/07 01:08:27;;;;;;;;;;;;;;;18.79;95.69;99586.75;5063971;28;19942;-43
2022/05/07 01:10:53;;;;;;;;;;;;;;;18.90;96.16;99587.91;5064648;28;20010;-44
2022/05/07 01:13:18;;;;;;;;;;;;;;;18.88;95.34;99584.53;5064136;28;19920;-43
2022/05/07 01:15:44;;;;;;;;;;;;;;;18.71;96.73;99588.91;5065095;28;19916;-44
2022/05/07 01:18:10;;;;;;;;;;;;;;;18.80;96.18;99585.81;5061696;28;19923;-45
2022/05/07 01:20:35;;;;;;;;;;;;;;;18.74;95.82;99587.91;5065641;28;19963;-46
2022/05/07 01:23:00;;;;;;;;;;;;;;;18.83;95.78;99587.41;5062679;28;20459;-44
2022/05/07 01:25:25;;;;;;;;;;;;;;;18.78;96.06;99579.84;5062756;28;20854;-44
2022/05/07 01:27:51;;;;;;;;;;;;;;;18.62;98.03;99581.59;5064352;28;20440;-44
2022/05/07 01:30:16;;;;;;;;;;;;;;;18.62;98.42;99583.38;5063775;28;20358;-43
2022/05/07 01:32:41;;;;;;;;;;;;;;;18.50;98.11;99584.91;5064738;28;20518;-44
2022/05/07 01:35:07;;;;;;;;;;;;;;;18.50;99.13;99579.69;5064796;28;20498;-47
2022/05/07 01:37:32;;;;;;;;;;;;;;;18.41;99.47;99577.59;5064092;28;20439;-43
2022/05/07 01:39:57;;;;;;;;;;;;;;;18.44;100.00;99572.19;5062362;28;19920;-43
2022/05/07 01:42:22;;;;;;;;;;;;;;;18.45;99.51;99571.25;5058526;28;19916;-43
2022/05/07 01:44:47;;;;;;;;;;;;;;;18.51;99.10;99566.53;5061222;28;19920;-44
2022/05/07 01:49:56;;;;;;;;;;;;;;;18.52;99.00;99555.19;5064786;28;19965;-45
2022/05/07 01:52:22;;;;;;;;;;;;;;;18.45;98.06;99560.81;5061867;28;20668;-44
2022/05/07 01:54:47;;;;;;;;;;;;;;;18.49;99.25;99564.94;5061037;28;20348;-44
2022/05/07 01:57:12;;;;;;;;;;;;;;;18.36;99.44;99557.81;5063195;28;19920;-45
2022/05/07 01:59:37;;;;;;;;;;;;;;;18.50;99.68;99564.88;5060592;28;20026;-43
2022/05/07 02:02:03;;;;;;;;;;;;;;;18.48;99.78;99555.47;5064407;28;20866;-44
2022/05/07 02:04:28;;;;;;;;;;;;;;;18.21;100.00;99558.66;5064339;28;20411;-44
2022/05/07 02:06:53;;;;;;;;;;;;;;;18.24;100.00;99563.69;5064364;28;20367;-44
2022/05/07 02:09:18;;;;;;;;;;;;;;;18.12;100.00;99561.75;5061258;28;20352;-45
2022/05/07 02:11:44;;;;;;;;;;;;;;;18.08;100.00;99563.66;5064006;28;20834;-44
2022/05/07 02:14:09;;;;;;;;;;;;;;;18.10;100.00;99555.78;5060252;28;19924;-44
2022/05/07 02:16:35;;;;;;;;;;;;;;;18.21;100.00;99555.22;5063599;28;19926;-43
2022/05/07 02:19:00;;;;;;;;;;;;;;;18.31;100.00;99561.59;5064301;28;19925;-44
2022/05/07 02:21:25;;;;;;;;;;;;;;;18.04;100.00;99556.09;5060380;28;19926;-43
2022/05/07 02:23:50;;;;;;;;;;;;;;;17.88;100.00;99564.75;5060153;28;20043;-43
2022/05/07 02:26:16;;;;;;;;;;;;;;;17.92;100.00;99566.25;5061419;28;20010;-44
2022/05/07 02:28:41;;;;;;;;;;;;;;;17.58;100.00;99569.75;5063415;28;20375;-43
2022/05/07 02:31:06;;;;;;;;;;;;;;;17.79;100.00;99562.63;5062810;28;19927;-43
2022/05/07 02:33:31;;;;;;;;;;;;;;;17.86;100.00;99564.00;5061715;28;19916;-44
2022/05/07 02:35:56;;;;;;;;;;;;;;;18.14;100.00;99559.91;5062598;28;19931;-44
2022/05/07 02:38:22;;;;;;;;;;;;;;;18.00;100.00;99559.81;5063226;28;19959;-43
2022/05/07 02:43:31;;;;;;;;;;;;;;;17.99;100.00;99564.16;5059815;28;20058;-43
2022/05/07 02:45:56;;;;;;;;;;;;;;;17.84;100.00;99563.25;5066333;28;20393;-43
2022/05/07 02:48:22;;;;;;;;;;;;;;;17.92;100.00;99562.81;5064565;28;19973;-43
2022/05/07 02:50:47;;;;;;;;;;;;;;;17.96;100.00;99559.13;5067193;28;20373;-44
2022/05/07 02:53:12;;;;;;;;;;;;;;;17.94;100.00;99556.59;5065270;28;19923;-44
2022/05/07 02:55:38;;;;;;;;;;;;;;;17.95;100.00;99560.06;5066082;28;19977;-44
2022/05/07 02:58:03;;;;;;;;;;;;;;;17.84;100.00;99551.97;5065452;28;20712;-43
2022/05/07 03:00:28;;;;;;;;;;;;;;;17.89;100.00;99553.41;5067774;28;19920;-44
2022/05/07 03:02:53;;;;;;;;;;;;;;;17.73;100.00;99555.13;5065291;28;20085;-45
2022/05/07 03:05:18;;;;;;;;;;;;;;;17.75;100.00;99555.88;5069231;28;20023;-44
2022/05/07 03:07:44;;;;;;;;;;;;;;;17.94;99.39;99556.59;5065227;28;20619;-43
2022/05/07 03:10:09;;;;;;;;;;;;;;;17.84;99.58;99552.81;5066091;28;20032;-45
2022/05/07 03:12:34;;;;;;;;;;;;;;;17.86;98.88;99553.56;5063468;28;19920;-43
2022/05/07 03:15:00;;;;;;;;;;;;;;;17.97;98.12;99546.03;5065699;28;19932;-45
2022/05/07 03:17:26;;;;;;;;;;;;;;;17.77;99.19;99552.25;5065703;28;19921;-44
2022/05/07 03:19:51;;;;;;;;;;;;;;;17.76;99.36;99542.75;5066552;28;19916;-43
2022/05/07 03:22:16;;;;;;;;;;;;;;;17.89;99.17;99547.34;5065408;28;19920;-44
2022/05/07 03:24:41;;;;;;;;;;;;;;;17.72;100.00;99548.19;5065765;28;19963;-44
2022/05/07 03:27:07;;;;;;;;;;;;;;;17.86;99.97;99548.38;5067410;28;19961;-43
2022/05/07 03:29:32;;;;;;;;;;;;;;;17.91;99.35;99543.75;5065328;28;19928;-43
2022/05/07 03:31:57;;;;;;;;;;;;;;;17.88;99.54;99553.47;5067674;28;20308;-44
2022/05/07 03:34:22;;;;;;;;;;;;;;;17.92;98.29;99545.41;5065639;28;20018;-43
2022/05/07 03:36:48;;;;;;;;;;;;;;;17.93;99.03;99547.09;5067078;28;20130;-44
2022/05/07 03:39:13;;;;;;;;;;;;;;;17.96;98.01;99546.94;5062731;28;20375;-44
2022/05/07 03:41:38;;;;;;;;;;;;;;;17.90;97.73;99536.88;5061733;28;19921;-45
2022/05/07 03:44:04;;;;;;;;;;;;;;;17.81;97.73;99549.47;5066879;28;19931;-44
2022/05/07 03:46:29;;;;;;;;;;;;;;;17.45;99.75;99548.75;5064930;28;19927;-43
2022/05/07 03:48:54;;;;;;;;;;;;;;;17.68;99.45;99542.31;5066821;28;19920;-43
2022/05/07 03:51:20;;;;;;;;;;;;;;;17.72;99.25;99545.59;5067373;28;19967;-44
2022/05/07 03:53:45;;;;;;;;;;;;;;;17.71;98.81;99544.75;5063828;28;19921;-44
2022/05/07 03:56:10;;;;;;;;;;;;;;;17.84;97.65;99547.59;5064647;28;20687;-43
2022/05/07 03:58:36;;;;;;;;;;;;;;;17.75;98.19;99537.63;5066278;28;19916;-46
2022/05/07 04:01:01;;;;;;;;;;;;;;;17.82;98.60;99543.41;5065110;28;19982;-43
2022/05/07 04:03:27;;;;;;;;;;;;;;;17.78;98.05;99545.28;5063755;28;19924;-44
2022/05/07 04:05:52;;;;;;;;;;;;;;;17.81;98.32;99550.34;5064163;28;19920;-44
2022/05/07 04:08:17;;;;;;;;;;;;;;;17.77;98.94;99546.22;5064960;28;19978;-44
2022/05/07 04:10:43;;;;;;;;;;;;;;;17.62;98.77;99554.84;5064603;28;19920;-45
2022/05/07 04:13:09;;;;;;;;;;;;;;;17.80;98.58;99551.25;5062655;28;20579;-45
2022/05/07 04:15:35;;;;;;;;;;;;;;;17.76;97.83;99547.97;5063793;28;19916;-44
2022/05/07 04:18:00;;;;;;;;;;;;;;;17.71;99.04;99543.94;5063746;28;20856;-44
2022/05/07 04:20:25;;;;;;;;;;;;;;;17.86;97.03;99553.56;5062978;28;19973;-44
2022/05/07 04:22:51;;;;;;;;;;;;;;;17.76;98.20;99557.53;5064680;28;19928;-45
2022/05/07 04:25:16;;;;;;;;;;;;;;;17.78;98.46;99550.50;5064146;28;19951;-44
2022/05/07 04:27:41;;;;;;;;;;;;;;;17.90;97.97;99560.31;5065807;28;20503;-44
2022/05/07 04:30:07;;;;;;;;;;;;;;;17.68;99.53;99557.97;5066001;28;20116;-45
2022/05/07 04:32:32;;;;;;;;;;;;;;;17.61;99.17;99558.34;5063548;28;20442;-43
2022/05/07 04:34:57;;;;;;;;;;;;;;;17.78;100.00;99566.13;5065082;28;19927;-44
2022/05/07 04:37:22;;;;;;;;;;;;;;;17.76;100.00;99562.75;5063218;28;19947;-43
2022/05/07 04:39:48;;;;;;;;;;;;;;;17.72;99.65;99561.22;5064789;28;19916;-43
2022/05/07 04:42:13;;;;;;;;;;;;;;;18.07;99.45;99562.00;5062174;28;19920;-44
2022/05/07 04:44:38;;;;;;;;;;;;;;;18.05;99.54;99556.03;5064297;28;19928;-43
2022/05/07 04:47:05;;;;;;;;;;;;;;;17.93;100.00;99564.53;5062892;28;19924;-43
2022/05/07 04:49:30;;;;;;;;;;;;;;;18.10;99.54;99555.78;5066350;28;19959;-43
2022/05/07 04:51:55;;;;;;;;;;;;;;;18.24;100.00;99558.47;5063407;28;20050;-43
2022/05/07 04:54:21;;;;;;;;;;;;;;;18.24;99.44;99557.63;5062880;28;19924;-44
2022/05/07 04:56:46;;;;;;;;;;;;;;;18.38;97.26;99561.19;5064691;28;19920;-43
2022/05/07 04:59:12;;;;;;;;;;;;;;;18.06;98.90;99559.47;5065138;28;19924;-43
2022/05/07 05:01:37;;;;;;;;;;;;;;;18.57;98.69;99563.59;5066018;28;19919;-45
2022/05/07 05:04:03;;;;;;;;;;;;;;;18.08;97.71;99557.63;5067346;28;20381;-44
2022/05/07 05:06:28;;;;;;;;;;;;;;;18.86;97.75;99560.28;5067070;28;19965;-44
2022/05/07 05:08:53;;;;;;;;;;;;;;;19.14;95.85;99560.38;5065740;28;20024;-43
2022/05/07 05:11:18;;;;;;;;;;;;;;;18.79;95.82;99565.00;5064202;28;19920;-43
2022/05/07 05:13:44;;;;;;;;;;;;;;;18.41;96.08;99561.94;5064164;28;20707;-44
2022/05/07 05:16:09;;;;;;;;;;;;;;;18.35;96.95;99566.53;5067117;28;20375;-43
2022/05/07 05:18:34;;;;;;;;;;;;;;;18.39;97.36;99565.47;5065488;28;19919;-43
2022/05/07 05:20:59;;;;;;;;;;;;;;;18.67;97.49;99565.69;5068378;28;19978;-44
2022/05/07 05:23:25;;;;;;;;;;;;;;;18.88;94.71;99566.25;5064046;28;19964;-43
2022/05/07 05:25:50;;;;;;;;;;;;;;;19.48;91.69;99561.00;5063543;28;20061;-43
2022/05/07 05:28:16;;;;;;;;;;;;;;;19.18;91.74;99561.91;5059621;28;19925;-43
2022/05/07 05:30:41;;;;;;;;;;;;;;;19.72;93.02;99565.72;5066680;28;19924;-44
2022/05/07 05:33:06;;;;;;;;;;;;;;;19.64;89.70;99564.38;5062849;28;19917;-44
2022/05/07 05:35:31;;;;;;;;;;;;;;;19.73;93.62;99567.38;5063920;28;19920;-43
2022/05/07 05:37:56;;;;;;;;;;;;;;;19.67;91.42;99565.13;5063233;28;19927;-46
2022/05/07 05:40:22;;;;;;;;;;;;;;;19.47;90.17;99561.94;5066264;28;19923;-45
2022/05/07 05:42:47;;;;;;;;;;;;;;;19.65;89.63;99571.25;5064570;28;20956;-43
2022/05/07 05:45:12;;;;;;;;;;;;;;;19.61;91.81;99567.19;5065514;28;19917;-45
2022/05/07 05:47:38;;;;;;;;;;;;;;;19.51;88.39;99560.81;5064483;28;19927;-44
2022/05/07 05:50:03;;;;;;;;;;;;;;;19.72;90.70;99569.16;5064095;28;19916;-43
2022/05/07 05:52:29;;;;;;;;;;;;;;;20.23;90.09;99566.03;5067145;28;20400;-44
2022/05/07 05:54:54;;;;;;;;;;;;;;;20.59;89.64;99569.88;5062906;28;20438;-44
2022/05/07 05:57:19;;;;;;;;;;;;;;;20.29;87.26;99570.88;5065415;28;19997;-43
2022/05/07 05:59:44;;;;;;;;;;;;;;;20.53;89.22;99578.13;5061142;28;19948;-43
2022/05/07 06:02:10;;;;;;;;;;;;;;;20.71;86.64;99570.88;5066499;28;19916;-43
2022/05/07 06:04:35;;;;;;;;;;;;;;;20.57;88.69;99577.00;5064175;28;19985;-43
2022/05/07 06:07:00;;;;;;;;;;;;;;;20.67;86.80;99570.25;5063972;28;19926;-44
2022/05/07 06:09:28;;;;;;;;;;;;;;;20.93;85.04;99575.56;5063974;28;19966;-43
2022/05/07 06:11:54;;;;;;;;;;;;;;;21.18;84.10;99570.38;5065118;28;19916;-44
2022/05/07 06:14:19;;;;;;;;;;;;;;;21.14;84.31;99575.91;5063397;28;20679;-45
2022/05/07 06:16:45;;;;;;;;;;;;;;;21.45;82.86;99574.72;5062051;28;19916;-44
2022/05/07 06:19:10;;;;;;;;;;;;;;;21.20;83.87;99573.72;5063061;28;19928;-46
2022/05/07 06:21:35;;;;;;;;;;;;;;;21.27;83.76;99577.59;5063135;28;19970;-45
2022/05/07 06:27:28;;;;;;;;;;;;;;;20.92;83.28;99581.75;5062378;28;19921;-43
2022/05/07 06:29:30;;;;;;;;;;;;;;;21.79;82.75;99580.28;5061307;28;20289;-45
2022/05/07 06:31:55;;;;;;;;;;;;;;;21.70;84.29;99574.72;5063608;28;19916;-44
2022/05/07 06:34:22;;;;;;;;;;;;;;;21.60;84.89;99575.44;5062287;28;20409;-43
2022/05/07 06:36:48;;;;;;;;;;;;;;;22.06;83.35;99574.91;5064203;28;19916;-44
2022/05/07 06:39:15;;;;;;;;;;;;;;;22.45;81.28;99573.88;5062286;28;19928;-45
2022/05/07 06:41:41;;;;;;;;;;;;;;;22.54;80.89;99573.19;5059727;28;19920;-44
2022/05/07 06:44:06;;;;;;;;;;;;;;;22.23;81.73;99578.97;5060929;28;19930;-44
2022/05/07 06:46:31;;;;;;;;;;;;;;;22.55;81.04;99576.66;5060144;28;19924;-44
2022/05/07 06:48:56;;;;;;;;;;;;;;;22.76;81.30;99580.34;5061278;28;19920;-44
2022/05/07 06:51:24;;;;;;;;;;;;;;;22.87;79.51;99584.81;5063379;28;20505;-43
2022/05/07 06:53:49;;;;;;;;;;;;;;;23.00;77.50;99583.94;5061997;28;20363;-44
2022/05/07 06:56:14;;;;;;;;;;;;;;;23.35;77.87;99579.47;5060651;28;19920;-44
2022/05/07 06:58:39;;;;;;;;;;;;;;;23.44;74.89;99574.50;5060409;28;19916;-43
2022/05/07 07:01:04;;;;;;;;;;;;;;;23.56;76.59;99576.16;5059736;28;19927;-45
2022/05/07 07:03:30;;;;;;;;;;;;;;;23.54;74.52;99580.75;5061364;28;19925;-47
2022/05/07 07:05:56;;;;;;;;;;;;;;;23.93;76.66;99573.38;5059978;28;19931;-43
2022/05/07 07:08:21;;;;;;;;;;;;;;;24.24;73.39;99581.47;5063067;28;20062;-43
2022/05/07 07:10:47;;;;;;;;;;;;;;;24.75;74.96;99587.00;5061782;28;20021;-44
2022/05/07 07:13:12;;;;;;;;;;;;;;;24.49;74.11;99583.81;5061421;28;19920;-44
2022/05/07 07:15:39;;;;;;;;;;;;;;;24.37;73.47;99588.25;5058938;28;20006;-43
2022/05/07 07:18:09;;;;;;;;;;;;;;;24.56;75.08;99585.03;5060942;28;19916;-42
2022/05/07 07:20:35;;;;;;;;;;;;;;;25.18;69.45;99582.59;5046013;28;20507;-45
2022/05/07 07:23:00;;;;;;;;;;;;;;;25.45;68.82;99593.50;5059396;28;20384;-45
2022/05/07 07:25:26;;;;;;;;;;;;;;;25.25;68.42;99586.44;5061583;28;19930;-43
2022/05/07 07:27:51;;;;;;;;;;;;;;;25.63;67.46;99582.34;5061637;28;20419;-43
2022/05/07 07:30:16;;;;;;;;;;;;;;;25.57;67.23;99588.16;5058047;28;19924;-44
2022/05/07 07:32:41;;;;;;;;;;;;;;;25.77;67.51;99583.78;5063301;28;21128;-43
2022/05/07 07:35:07;;;;;;;;;;;;;;;25.74;66.23;99590.16;5068341;28;19916;-45
2022/05/07 07:37:35;;;;;;;;;;;;;;;26.31;67.32;99581.78;5064291;28;20475;-43
2022/05/07 07:40:02;;;;;;;;;;;;;;;26.33;65.73;99591.25;5067609;28;19981;-44
2022/05/07 07:42:27;;;;;;;;;;;;;;;26.59;63.12;99586.31;5063621;28;19982;-39
2022/05/07 07:47:56;;;;;;;;;;;;;;;26.42;61.51;99589.59;5063879;28;20377;-39
2022/05/07 07:50:21;;;;;;;;;;;;;;;24.63;62.44;99588.84;5067304;28;20656;-39
2022/05/07 07:52:48;;;;;;;;;;;;;;;25.50;64.73;99592.25;5062747;28;19924;-39
2022/05/07 07:55:13;;;;;;;;;;;;;;;25.31;61.76;99588.53;5066784;28;19916;-39
2022/05/07 07:57:38;;;;;;;;;;;;;;;26.62;58.31;99588.69;5066376;28;19971;-39
2022/05/07 08:00:04;;;;;;;;;;;;;;;25.30;63.01;99586.88;5067791;28;19963;-39
2022/05/07 08:02:30;;;;;;;;;;;;;;;24.42;63.10;99590.50;5064491;28;19920;-39
2022/05/07 08:04:57;;;;;;;;;;;;;;;25.63;58.40;99588.44;5065107;28;19975;-39
2022/05/07 08:12:50;;;;;;;;;;;;;;;24.94;58.21;99582.84;5062612;28;19927;-39
2022/05/07 08:15:15;;;;;;;;;;;;;;;24.35;59.29;99599.88;5066156;28;19916;-39
2022/05/07 08:17:40;;;;;;;;;;;;;;;25.22;57.03;99586.69;5064920;28;19973;-39
2022/05/07 08:20:11;;;;;;;;;;;;;;;25.82;57.28;99586.91;5063111;28;19917;-39
2022/05/07 08:22:37;;;;;;;;;;;;;;;25.88;52.41;99584.56;5064653;28;19920;-39
2022/05/07 08:25:02;;;;;;;;;;;;;;;25.34;56.95;99598.00;5064775;28;19935;-39
2022/05/07 08:27:27;;;;;;;;;;;;;;;24.84;62.60;99595.94;5065908;28;20010;-39
2022/05/07 08:29:56;;;;;;;;;;;;;;;26.01;52.62;99586.16;5063720;28;19927;-39
2022/05/07 08:32:21;;;;;;;;;;;;;;;27.15;51.96;99590.06;5063996;28;20006;-39
2022/05/07 08:34:48;;;;;;;;;;;;;;;26.41;49.77;99598.47;5063052;28;19921;-39
2022/05/07 08:37:14;;;;;;;;;;;;;;;24.54;58.58;99605.38;5064611;28;19998;-39
2022/05/07 08:39:39;;;;;;;;;;;;;;;25.96;54.10;99597.13;5063392;28;20684;-39
2022/05/07 08:42:05;;;;;;;;;;;;;;;25.49;53.75;99601.16;5061960;28;19924;-39
2022/05/07 08:44:30;;;;;;;;;;;;;;;27.06;46.08;99604.13;5060845;28;19932;-39
2022/05/07 08:46:55;;;;;;;;;;;;;;;25.76;56.15;99604.06;5060451;28;20833;-39
2022/05/07 08:49:21;;;;;;;;;;;;;;;25.37;59.01;99603.84;5061535;28;20445;-39
2022/05/07 08:51:47;;;;;;;;;;;;;;;26.25;56.40;99594.56;5061750;28;19991;-39
2022/05/07 08:54:13;;;;;;;;;;;;;;;26.24;52.94;99590.25;5065526;28;19980;-39
2022/05/07 08:56:38;;;;;;;;;;;;;;;27.10;50.88;99598.44;5044526;28;20167;-39
2022/05/07 08:59:03;;;;;;;;;;;;;;;25.84;56.78;99606.91;5062311;28;19920;-39
2022/05/07 09:01:28;;;;;;;;;;;;;;;26.37;52.73;99594.47;5060086;28;19916;-39
2022/05/07 09:03:54;;;;;;;;;;;;;;;25.50;52.35;99605.44;5056669;28;20580;-39
2022/05/07 09:06:23;;;;;;;;;;;;;;;26.31;56.23;99590.53;5061271;28;20431;-39
2022/05/07 09:08:48;;;;;;;;;;;;;;;28.21;46.73;99589.91;5064384;28;19916;-39
2022/05/07 09:11:14;;;;;;;;;;;;;;;28.70;44.63;99583.34;5060179;28;20373;-39
2022/05/07 09:13:40;;;;;;;;;;;;;;;29.61;42.46;99590.19;5061825;28;19920;-39
2022/05/07 09:16:06;;;;;;;;;;;;;;;27.08;52.81;99608.31;5064230;28;19973;-39
2022/05/07 09:18:31;;;;;;;;;;;;;;;26.47;51.65;99597.94;5061584;28;19932;-39
2022/05/07 09:21:26;;;;;;;;;;;;;;;26.48;57.45;99589.06;5059632;28;19932;-39
2022/05/07 09:24:05;;;;;;;;;;;;;;;26.05;57.55;99593.66;5064768;28;19925;-39
2022/05/07 09:26:31;;;;;;;;;;;;;;;27.03;53.80;99584.09;5060696;28;20015;-39
2022/05/07 09:28:57;;;;;;;;;;;;;;;27.39;49.06;99594.91;5061519;28;19920;-38
2022/05/07 09:31:23;;;;;;;;;;;;;;;27.10;48.06;99590.50;5061943;28;20316;-39
2022/05/07 09:33:48;;;;;;;;;;;;;;;28.26;49.08;99579.69;5061720;28;20419;-39
2022/05/07 09:36:14;;;;;;;;;;;;;;;28.42;47.59;99574.59;5061748;28;19920;-39
2022/05/07 09:38:39;;;;;;;;;;;;;;;27.19;47.63;99588.00;5063861;28;19926;-39
2022/05/07 09:41:07;;;;;;;;;;;;;;;26.60;54.18;99585.34;5062208;28;20383;-39
2022/05/07 09:43:32;;;;;;;;;;;;;;;26.55;58.33;99584.06;5060553;28;19924;-39
2022/05/07 09:45:58;;;;;;;;;;;;;;;26.57;55.97;99587.41;5059555;28;19931;-39
2022/05/07 09:48:23;;;;;;;;;;;;;;;26.94;55.21;99584.94;5057835;28;19927;-39
2022/05/07 09:50:48;;;;;;;;;;;;;;;27.73;53.49;99581.19;5058691;28;19921;-39
2022/05/07 09:58:44;;;;;;;;;;;;;;;27.91;50.92;99574.16;5060957;28;20032;-39
2022/05/07 10:01:21;;;;;;;;;;;;;;;27.66;51.78;99580.91;5053063;28;20011;-39
2022/05/07 10:04:06;;;;;;;;;;;;;;;29.16;46.24;99568.19;5063330;28;19920;-39
2022/05/07 10:06:43;;;;;;;;;;;;;;;27.41;55.70;99574.44;5063431;28;19930;-39
2022/05/07 10:09:24;;;;;;;;;;;;;;;26.78;48.48;99579.38;5061902;28;19920;-39
2022/05/07 10:11:50;;;;;;;;;;;;;;;27.22;52.91;99582.44;5062164;28;19920;-39
2022/05/07 10:14:23;;;;;;;;;;;;;;;28.01;44.54;99573.28;5063654;28;19917;-39
2022/05/07 10:16:55;;;;;;;;;;;;;;;28.29;45.01;99564.34;5063938;28;19927;-39
2022/05/07 10:19:20;;;;;;;;;;;;;;;27.19;51.05;99577.41;5062519;28;20428;-39
2022/05/07 10:21:54;;;;;;;;;;;;;;;26.82;52.35;99570.19;5060195;28;20031;-39
2022/05/07 10:24:20;;;;;;;;;;;;;;;25.49;54.81;99574.78;5063720;28;19920;-39
2022/05/07 10:26:45;;;;;;;;;;;;;;;27.12;53.15;99572.69;5060748;28;20220;-39
2022/05/07 10:29:40;;;;;;;;;;;;;;;26.54;49.49;99567.38;5061243;28;19917;-39
2022/05/07 10:32:05;;;;;;;;;;;;;;;26.58;52.76;99562.69;5053176;28;19919;-38
2022/05/07 10:34:30;;;;;;;;;;;;;;;29.52;45.08;99556.63;5060645;28;20404;-38
2022/05/07 10:36:59;;;;;;;;;;;;;;;28.97;44.47;99555.09;5066602;28;19927;-39
2022/05/07 10:39:24;;;;;;;;;;;;;;;28.27;48.29;99558.38;5061272;28;20650;-39
2022/05/07 10:41:50;;;;;;;;;;;;;;;27.12;49.39;99566.56;5062594;28;19927;-39
2022/05/07 10:44:18;;;;;;;;;;;;;;;29.04;43.03;99563.25;5061769;28;19920;-39
2022/05/07 10:46:46;;;;;;;;;;;;;;;28.06;49.55;99565.75;5061052;28;19920;-39
2022/05/07 10:49:11;;;;;;;;;;;;;;;28.49;49.79;99557.16;5064793;28;19967;-40
2022/05/07 10:51:37;;;;;;;;;;;;;;;28.75;49.36;99564.34;5060936;28;20039;-38
2022/05/07 10:54:18;;;;;;;;;;;;;;;27.64;49.94;99563.53;5059112;28;20359;-39
2022/05/07 10:56:48;;;;;;;;;;;;;;;26.55;49.76;99558.50;5062107;28;20645;-38
2022/05/07 10:59:13;;;;;;;;;;;;;;;28.25;48.59;99539.16;5061718;28;19921;-38
2022/05/07 11:01:39;;;;;;;;;;;;;;;27.90;47.28;99551.34;5062760;28;19947;-38
2022/05/07 11:04:05;;;;;;;;;;;;;;;27.89;48.80;99548.81;5061851;28;19925;-38
2022/05/07 11:06:31;;;;;;;;;;;;;;;29.00;47.09;99546.81;5066426;28;19928;-38
2022/05/07 11:08:56;;;;;;;;;;;;;;;28.21;47.39;99547.53;5060876;28;20468;-39
2022/05/07 11:11:24;;;;;;;;;;;;;;;29.96;44.42;99538.78;5060706;28;19924;-38
2022/05/07 11:13:53;;;;;;;;;;;;;;;28.95;44.16;99541.16;5068400;28;19963;-39
2022/05/07 11:16:18;;;;;;;;;;;;;;;28.02;44.06;99543.19;5065249;28;19924;-39
2022/05/07 11:18:45;;;;;;;;;;;;;;;26.68;53.33;99548.47;5064850;28;20031;-39
2022/05/07 11:21:11;;;;;;;;;;;;;;;27.15;50.48;99547.75;5064240;28;20767;-39
2022/05/07 11:23:37;;;;;;;;;;;;;;;27.00;53.24;99546.53;5065515;28;19928;-39
2022/05/07 11:26:10;;;;;;;;;;;;;;;27.31;47.23;99536.63;5062992;28;19956;-39
2022/05/07 11:28:35;;;;;;;;;;;;;;;29.99;46.25;99530.50;5063530;28;19916;-39
2022/05/07 11:31:01;;;;;;;;;;;;;;;28.77;45.59;99533.22;5062665;28;19985;-39
2022/05/07 11:33:27;;;;;;;;;;;;;;;31.24;40.76;99523.28;5063309;28;19920;-39
2022/05/07 11:36:02;;;;;;;;;;;;;;;31.79;38.94;99518.16;5064611;28;19920;-39
2022/05/07 11:38:27;;;;;;;;;;;;;;;30.25;38.50;99516.28;5066424;28;20876;-39
2022/05/07 11:40:53;;;;;;;;;;;;;;;30.34;39.66;99517.97;5066786;28;19959;-39
2022/05/07 11:46:06;;;;;;;;;;;;;;;28.78;44.54;99527.75;5063079;28;20461;-39
2022/05/07 11:48:31;;;;;;;;;;;;;;;27.74;48.30;99529.94;5066482;28;20381;-39
2022/05/07 11:50:59;;;;;;;;;;;;;;;28.20;47.36;99525.53;5065857;28;19924;-39
2022/05/07 11:53:28;;;;;;;;;;;;;;;28.59;45.07;99514.66;5064359;28;19927;-39
2022/05/07 11:56:04;;;;;;;;;;;;;;;31.75;40.60;99507.03;5063203;28;19920;-39
2022/05/07 11:58:29;;;;;;;;;;;;;;;31.88;39.00;99501.94;5066700;28;19920;-39
2022/05/07 12:00:55;;;;;;;;;;;;;;;30.74;38.65;99513.66;5066084;28;20922;-38
2022/05/07 12:03:24;;;;;;;;;;;;;;;32.03;36.32;99499.41;5064644;28;19971;-38
2022/05/07 12:05:51;;;;;;;;;;;;;;;32.04;36.62;99509.06;5066289;28;19917;-39
2022/05/07 12:08:17;;;;;;;;;;;;;;;29.34;40.29;99509.75;5066116;28;20006;-39
2022/05/07 12:10:42;;;;;;;;;;;;;;;31.03;39.78;99502.53;5069096;28;19999;-47
2022/05/07 12:13:08;;;;;;;;;;;;;;;30.58;37.39;99503.88;5064837;28;19913;-44
2022/05/07 12:18:19;;;;;;;;;;;;;;;30.71;39.22;99498.06;5066655;28;19923;-46
2022/05/07 12:20:44;;;;;;;;;;;;;;;32.59;35.10;99493.03;5068582;28;19916;-46
2022/05/07 12:31:22;;;;;;;;;;;;;;;30.97;37.45;99494.41;5064024;28;19946;-43
2022/05/07 12:33:47;;;;;;;;;;;;;;;31.44;36.41;99483.84;5066246;28;19920;-44
2022/05/07 12:36:12;;;;;;;;;;;;;;;31.10;38.80;99484.09;5067269;28;20354;-45
2022/05/07 12:38:37;;;;;;;;;;;;;;;30.60;39.79;99485.94;5064596;28;19916;-44
2022/05/07 12:41:03;;;;;;;;;;;;;;;32.45;35.04;99478.63;5066419;28;19930;-44
2022/05/07 12:43:28;;;;;;;;;;;;;;;33.49;32.86;99468.16;5067934;28;20482;-44
2022/05/07 12:45:53;;;;;;;;;;;;;;;31.63;36.36;99473.78;5067597;28;20326;-44
2022/05/07 12:48:19;;;;;;;;;;;;;;;32.30;36.36;99476.75;5068787;28;20085;-39
2022/05/07 12:50:46;;;;;;;;;;;;;;;32.37;37.00;99473.38;5066722;28;20278;-39
2022/05/07 12:53:12;;;;;;;;;;;;;;;30.70;39.02;99485.78;5065509;28;19995;-39
2022/05/07 12:55:38;;;;;;;;;;;;;;;33.41;39.18;99476.25;5067586;28;19936;-40
2022/05/07 12:58:04;;;;;;;;;;;;;;;29.63;39.16;99482.03;5067778;28;19916;-39
2022/05/07 13:00:29;;;;;;;;;;;;;;;29.76;41.31;99484.25;5063286;28;19916;-39
2022/05/07 13:02:59;;;;;;;;;;;;;;;29.60;37.65;99480.56;5064306;28;19945;-39
2022/05/07 13:05:25;;;;;;;;;;;;;;;29.28;42.40;99485.69;5064219;28;19924;-39
2022/05/07 13:07:50;;;;;;;;;;;;;;;31.48;37.00;99467.53;5062844;28;19927;-39
2022/05/07 13:10:16;;;;;;;;;;;;;;;29.39;39.44;99477.44;5066265;28;20274;-40
2022/05/07 13:12:41;;;;;;;;;;;;;;;28.81;41.62;99491.31;5062720;28;19931;-39
2022/05/07 13:15:06;;;;;;;;;;;;;;;29.78;39.33;99480.44;5061938;28;19920;-39
2022/05/07 13:17:31;;;;;;;;;;;;;;;29.16;41.08;99485.94;5063970;28;19960;-39
2022/05/07 13:19:57;;;;;;;;;;;;;;;30.01;41.08;99486.00;5062249;28;19916;-39
2022/05/07 13:22:22;;;;;;;;;;;;;;;29.66;42.34;99486.19;5060809;28;19924;-39